CW3744 Weather Reports


Display with metric or nautical units.
time (UTC)temp
F
wind
direction
speed
MPH
gust
MPH
rain 1hr
in
rain 24hr
in
rain mn
in
humidity
%
barometer
mb
20190625154503 73 155 1.0 1.0 0.00 0.00 0.00 37 1007.2
20190625154009 72 180 0.0 0.0 0.00 0.00 0.00 37 1007.3
20190625153508 72 179 0.0 0.0 0.00 0.00 0.00 38 1007.4
20190625153007 71 184 5.0 8.0 0.00 0.00 0.00 38 1007.4
20190625152506 70 190 0.0 1.0 0.00 0.00 0.00 40 1007.6
20190625152005 70 189 0.0 1.0 0.00 0.00 0.00 42 1007.8
20190625151505 69 192 1.0 5.0 0.00 0.00 0.00 44 1007.7
20190625151004 69 192 0.0 2.0 0.00 0.00 0.00 43 1007.9
20190625150504 69 192 0.0 1.0 0.00 0.00 0.00 44 1007.9
20190625150008 68 192 0.0 0.0 0.00 0.00 0.00 46 1007.9
20190625145507 68 192 0.0 0.0 0.00 0.00 0.00 45 1007.9
20190625145006 68 194 1.0 4.0 0.00 0.00 0.00 44 1007.9
20190625144505 68 191 2.0 4.0 0.00 0.00 0.00 44 1007.8
20190625144005 68 203 0.0 0.0 0.00 0.00 0.00 44 1007.8
20190625143504 67 206 5.0 6.0 0.00 0.00 0.00 43 1007.8
20190625143003 67 185 0.0 0.0 0.00 0.00 0.00 44 1007.8
20190625142509 67 185 0.0 0.0 0.00 0.00 0.00 44 1007.7
20190625142007 66 188 0.0 0.0 0.00 0.00 0.00 44 1007.6
20190625141506 66 188 0.0 0.0 0.00 0.00 0.00 43 1007.6
20190625141006 66 192 2.0 5.0 0.00 0.00 0.00 43 1007.5
20190625140505 65 198 2.0 5.0 0.00 0.00 0.00 44 1007.5
20190625140004 65 196 1.0 5.0 0.00 0.00 0.00 45 1007.5
20190625135503 64 195 1.0 5.0 0.00 0.00 0.00 45 1007.5
20190625135008 64 211 1.0 5.0 0.00 0.00 0.00 47 1007.5
20190625134508 63 213 2.0 5.0 0.00 0.00 0.00 47 1007.4
20190625134007 62 180 1.0 4.0 0.00 0.00 0.00 49 1007.4
20190625133506 61 190 1.0 4.0 0.00 0.00 0.00 50 1007.4
20190625133005 60 186 3.0 7.0 0.00 0.00 0.00 51 1007.4
20190625132505 60 176 3.0 5.0 0.00 0.00 0.00 53 1007.3
20190625132004 59 174 0.0 2.0 0.00 0.00 0.00 54 1007.3
20190625131509 58 173 2.0 5.0 0.00 0.00 0.00 52 1007.3
20190625131008 58 176 0.0 3.0 0.00 0.00 0.00 53 1007.3
20190625130507 57 175 0.0 0.0 0.00 0.00 0.00 56 1007.5
20190625130006 56 174 2.0 4.0 0.00 0.00 0.00 56 1007.3
20190625125505 56 175 0.0 1.0 0.00 0.00 0.00 57 1007.3
20190625125005 56 177 2.0 5.0 0.00 0.00 0.00 57 1007.3
20190625124504 55 184 2.0 5.0 0.00 0.00 0.00 58 1007.4
20190625124003 55 182 1.0 3.0 0.00 0.00 0.00 58 1007.4
20190625123502 55 182 2.0 5.0 0.00 0.00 0.00 58 1007.4
20190625123007 55 180 3.0 6.0 0.00 0.00 0.00 58 1007.4
20190625122507 54 192 5.0 7.0 0.00 0.00 0.00 58 1007.2
20190625122006 54 175 4.0 6.0 0.00 0.00 0.00 59 1007.2
20190625121505 54 178 1.0 2.0 0.00 0.00 0.00 59 1007.1
20190625121004 54 180 3.0 6.0 0.00 0.00 0.00 59 1007.0
20190625120503 54 190 5.0 7.0 0.00 0.00 0.00 59 1007.0
20190625120002 54 191 4.0 6.0 0.00 0.00 0.00 59 1006.9
20190625115508 53 185 3.0 6.0 0.00 0.00 0.00 59 1006.9
20190625115008 53 170 2.0 4.0 0.00 0.00 0.00 59 1006.8
20190625114507 53 175 2.0 5.0 0.00 0.00 0.00 59 1006.8
20190625114005 54 167 2.0 4.0 0.00 0.00 0.00 59 1006.8
20190625113505 54 180 4.0 6.0 0.00 0.00 0.00 59 1006.9
20190625113005 54 161 1.0 6.0 0.00 0.00 0.00 59 1006.9
20190625112503 54 180 4.0 6.0 0.00 0.00 0.00 58 1006.8
20190625112003 54 183 3.0 6.0 0.00 0.00 0.00 58 1006.7
20190625111502 54 192 5.0 7.0 0.00 0.00 0.00 58 1006.7
20190625111006 54 210 5.0 7.0 0.00 0.00 0.00 59 1006.8
20190625110505 54 186 3.0 6.0 0.00 0.00 0.00 59 1006.8
20190625110004 54 198 4.0 7.0 0.00 0.00 0.00 59 1006.8
20190625105503 54 186 4.0 6.0 0.00 0.00 0.00 60 1006.7
20190625105002 54 171 4.0 6.0 0.00 0.00 0.00 60 1006.5
20190625104507 54 175 0.0 1.0 0.00 0.00 0.00 60 1006.5
20190625104006 55 175 0.0 0.0 0.00 0.00 0.00 60 1006.6
20190625103506 55 175 2.0 6.0 0.00 0.00 0.00 59 1006.6
20190625103005 55 189 2.0 4.0 0.00 0.00 0.00 58 1006.6
20190625102504 55 187 2.0 4.0 0.00 0.00 0.00 58 1006.4
20190625102004 55 189 4.0 5.0 0.00 0.00 0.00 58 1006.4
20190625101503 55 206 5.0 11.0 0.00 0.00 0.00 59 1006.4
20190625101002 55 195 6.0 8.0 0.00 0.00 0.00 59 1006.4
20190625100507 55 183 6.0 9.0 0.00 0.00 0.00 59 1006.4
20190625100007 55 192 3.0 5.0 0.00 0.00 0.00 59 1006.4
20190625095506 55 186 4.0 6.0 0.00 0.00 0.00 59 1006.3
20190625095006 55 171 2.0 5.0 0.00 0.00 0.00 59 1006.2
20190625094505 55 172 3.0 5.0 0.00 0.00 0.00 60 1006.5
20190625094005 55 173 1.0 4.0 0.00 0.00 0.00 60 1006.1
20190625093504 55 173 2.0 6.0 0.00 0.00 0.00 61 1006.1
20190625093003 55 174 2.0 5.0 0.00 0.00 0.00 61 1006.2
20190625092503 55 177 3.0 5.0 0.00 0.00 0.00 61 1006.2
20190625092009 55 178 2.0 5.0 0.00 0.00 0.00 60 1006.2
20190625091512 56 178 0.0 0.0 0.00 0.00 0.00 60 1006.3
20190625091007 56 178 2.0 6.0 0.00 0.00 0.00 59 1006.3
20190625090506 56 189 3.0 8.0 0.00 0.00 0.00 59 1006.3
20190625090005 56 194 1.0 5.0 0.00 0.00 0.00 59 1006.3
20190625085505 56 173 2.0 7.0 0.00 0.00 0.00 59 1006.2
20190625085004 56 169 4.0 5.0 0.00 0.00 0.00 59 1006.2
20190625084503 56 169 4.0 7.0 0.00 0.00 0.00 59 1006.2
20190625084003 56 175 1.0 4.0 0.00 0.00 0.00 59 1006.2
20190625083508 56 175 3.0 6.0 0.00 0.00 0.00 59 1006.3
20190625083007 56 172 3.0 6.0 0.00 0.00 0.00 59 1006.4
20190625082507 56 171 2.0 5.0 0.00 0.00 0.00 59 1006.4
20190625082006 57 165 3.0 5.0 0.00 0.00 0.00 60 1006.4
20190625081506 57 155 3.0 6.0 0.00 0.00 0.00 59 1006.5
20190625081029 57 136 3.0 6.0 0.00 0.00 0.00 59 1006.6
20190625080504 57 85 3.0 5.0 0.00 0.00 0.00 59 1006.4
20190625080003 57 32 0.0 0.0 0.00 0.00 0.00 59 1006.4
20190625075503 57 31 0.0 0.0 0.00 0.00 0.00 59 1006.5
20190625075002 57 31 0.0 1.0 0.00 0.00 0.00 59 1006.5
20190625074507 57 31 0.0 1.0 0.00 0.00 0.00 59 1006.6
20190625074007 58 31 0.0 0.0 0.00 0.00 0.00 59 1006.5
20190625073506 58 31 0.0 1.0 0.00 0.00 0.00 59 1006.6
20190625073006 58 31 0.0 0.0 0.00 0.00 0.00 58 1006.7
20190625072505 58 31 0.0 0.0 0.00 0.00 0.00 57 1006.6
20190625072005 58 31 0.0 2.0 0.00 0.00 0.00 57 1006.5
20190625071504 58 31 1.0 2.0 0.00 0.00 0.00 57 1006.6
20190625071004 58 31 2.0 5.0 0.00 0.00 0.00 56 1006.9
20190625070502 59 28 0.0 0.0 0.00 0.00 0.00 56 1006.3
20190625070008 59 28 0.0 0.0 0.00 0.00 0.00 56 1006.3
20190625065507 59 28 0.0 0.0 0.00 0.00 0.00 55 1006.3
20190625065006 60 28 0.0 0.0 0.00 0.00 0.00 54 1006.3
20190625064506 60 28 0.0 0.0 0.00 0.00 0.00 54 1006.2
20190625064005 60 28 1.0 2.0 0.00 0.00 0.00 52 1006.1
20190625063504 60 28 1.0 4.0 0.00 0.00 0.00 52 1006.0
20190625063003 61 27 0.0 0.0 0.00 0.00 0.00 51 1006.0
20190625062503 61 27 0.0 1.0 0.00 0.00 0.00 51 1005.9
20190625062002 61 27 0.0 0.0 0.00 0.00 0.00 49 1006.0
20190625061507 62 27 0.0 0.0 0.00 0.00 0.00 49 1006.0
20190625061007 62 27 0.0 0.0 0.00 0.00 0.00 49 1006.1
20190625060506 62 27 0.0 0.0 0.00 0.00 0.00 48 1006.1
20190625060005 63 27 0.0 0.0 0.00 0.00 0.00 48 1006.2
20190625055503 63 27 0.0 0.0 0.00 0.00 0.00 47 1006.5
20190625055002 63 27 0.0 0.0 0.00 0.00 0.00 46 1006.3
20190625054508 64 27 0.0 4.0 0.00 0.00 0.00 46 1006.3
20190625054006 64 27 0.0 0.0 0.00 0.00 0.00 46 1006.3
20190625053506 64 27 1.0 4.0 0.00 0.00 0.00 45 1006.4
20190625053005 65 26 2.0 4.0 0.00 0.00 0.00 45 1006.4
20190625052503 65 24 1.0 4.0 0.00 0.00 0.00 44 1006.3
20190625052002 66 27 1.0 6.0 0.00 0.00 0.00 43 1006.4
20190625051502 66 28 5.0 9.0 0.00 0.00 0.00 42 1006.4
20190625051007 66 11 5.0 7.0 0.00 0.00 0.00 43 1006.5
20190625050506 66 308 0.0 0.0 0.00 0.00 0.00 44 1006.4
20190625050005 65 306 1.0 3.0 0.00 0.00 0.00 44 1006.5
20190625045504 65 321 4.0 9.0 0.00 0.00 0.00 44 1006.6
20190625045003 65 157 0.0 0.0 0.00 0.00 0.00 43 1006.2
20190625044508 66 157 0.0 0.0 0.00 0.00 0.00 43 1006.0
20190625044008 66 157 0.0 0.0 0.00 0.00 0.00 43 1006.3
20190625043506 66 157 0.0 0.0 0.00 0.00 0.00 42 1005.9
20190625043006 66 144 2.0 4.0 0.00 0.00 0.00 42 1005.9
20190625042505 66 117 0.0 0.0 0.00 0.00 0.00 42 1005.9
20190625042004 66 115 0.0 0.0 0.00 0.00 0.00 42 1005.8
20190625041503 66 111 1.0 2.0 0.00 0.00 0.00 42 1005.7
20190625041002 66 106 0.0 0.0 0.00 0.00 0.00 42 1005.7
20190625040501 66 106 0.0 0.0 0.00 0.00 0.00 42 1005.6
20190625040007 66 105 0.0 0.0 0.00 0.00 0.00 43 1005.6
20190625035506 66 105 0.0 1.0 0.00 0.00 0.00 43 1005.5
20190625035005 66 104 0.0 0.0 0.00 0.00 0.00 44 1005.4
20190625034504 66 104 0.0 0.0 0.00 0.00 0.00 45 1005.7
20190625034003 66 104 0.0 0.0 0.00 0.00 0.00 45 1005.4
20190625033508 66 104 0.0 0.0 0.00 0.00 0.00 46 1005.4
20190625033007 66 104 0.0 0.0 0.00 0.00 0.00 46 1005.2
20190625032506 67 104 0.0 0.0 0.00 0.00 0.00 45 1005.6
20190625032006 67 104 0.0 0.0 0.00 0.00 0.00 44 1004.9
20190625031504 68 104 0.0 0.0 0.00 0.00 0.00 43 1004.8
20190625031004 68 104 0.0 0.0 0.00 0.00 0.00 43 1004.8
20190625030503 69 104 0.0 0.0 0.00 0.00 0.00 41 1004.7
20190625030009 69 104 0.0 0.0 0.00 0.00 0.00 40 1004.8
20190625025507 70 103 0.0 0.0 0.00 0.00 0.00 39 1004.7
20190625025006 70 104 0.0 0.0 0.00 0.00 0.00 39 1005.0
20190625024505 70 104 0.0 0.0 0.00 0.00 0.00 38 1004.6
20190625024004 71 104 0.0 0.0 0.00 0.00 0.00 37 1004.5
20190625023503 71 104 0.0 0.0 0.00 0.00 0.00 36 1004.5
20190625023002 71 104 0.0 0.0 0.00 0.00 0.00 36 1004.7
20190625022507 72 104 0.0 1.0 0.00 0.00 0.00 36 1004.5
20190625022007 72 104 0.0 0.0 0.00 0.00 0.00 36 1004.4
20190625021506 72 103 1.0 2.0 0.00 0.00 0.00 35 1004.5
20190625021005 73 104 0.0 0.0 0.00 0.00 0.00 35 1004.7
20190625020504 73 104 0.0 0.0 0.00 0.00 0.00 35 1004.6
20190625020004 73 104 0.0 0.0 0.00 0.00 0.00 34 1004.6
20190625015503 74 104 0.0 0.0 0.00 0.00 0.00 33 1004.6
20190625015002 74 104 0.0 0.0 0.00 0.00 0.00 32 1004.8
20190625014507 75 104 0.0 0.0 0.00 0.00 0.00 31 1004.5
20190625014006 75 104 1.0 2.0 0.00 0.00 0.00 30 1004.4
20190625013506 76 104 2.0 4.0 0.00 0.00 0.00 28 1004.3
20190625013005 76 104 0.0 1.0 0.00 0.00 0.00 29 1004.5
20190625012504 76 104 1.0 2.0 0.00 0.00 0.00 29 1004.4
20190625012004 76 104 0.0 1.0 0.00 0.00 0.00 28 1004.3
20190625011503 76 103 0.0 1.0 0.00 0.00 0.00 29 1004.5
20190625011002 76 104 0.0 0.0 0.00 0.00 0.00 29 1004.3
20190625010507 76 103 1.0 2.0 0.00 0.00 0.00 27 1004.3
20190625010006 77 103 2.0 4.0 0.00 0.00 0.00 27 1004.3
20190625005506 77 101 2.0 4.0 0.00 0.00 0.00 26 1004.5
20190625005006 77 98 3.0 4.0 0.00 0.00 0.00 26 1004.2
20190625004505 77 96 0.0 1.0 0.00 0.00 0.00 26 1004.2
20190625004004 78 164 3.0 6.0 0.00 0.00 0.00 26 1004.2
20190625003503 78 103 3.0 6.0 0.00 0.00 0.00 26 1004.3
20190625003002 78 156 2.0 4.0 0.00 0.00 0.00 26 1004.2
20190625002508 79 96 2.0 4.0 0.00 0.00 0.00 25 1004.2
20190625002007 80 103 2.0 5.0 0.00 0.00 0.00 24 1004.4
20190625001506 81 141 3.0 5.0 0.00 0.00 0.00 25 1004.2
20190625001006 81 156 4.0 6.0 0.00 0.00 0.00 23 1004.1
20190625000510 81 94 1.0 2.0 0.00 0.00 0.00 24 1004.0
20190625000009 81 138 3.0 6.0 0.00 0.00 0.00 23 1004.4
20190624235509 82 95 3.0 5.0 0.00 0.00 0.00 23 1004.1
20190624235008 82 163 1.0 4.0 0.00 0.00 0.00 22 1004.3
20190624234507 82 113 0.0 1.0 0.00 0.00 0.00 22 1004.4
20190624234006 82 116 1.0 2.0 0.00 0.00 0.00 21 1004.3
20190624233506 83 157 4.0 5.0 0.00 0.00 0.00 21 1004.1
20190624233011 82 180 0.0 2.0 0.00 0.00 0.00 22 1004.2
20190624232510 82 181 3.0 6.0 0.00 0.00 0.00 21 1004.3
20190624232009 82 127 1.0 2.0 0.00 0.00 0.00 21 1004.2
20190624231508 82 115 3.0 5.0 0.00 0.00 0.00 21 1004.4
20190624231007 82 104 2.0 3.0 0.00 0.00 0.00 20 1004.5
20190624230530 83 172 2.0 5.0 0.00 0.00 0.00 20 1004.6
20190624230006 84 198 1.0 4.0 0.00 0.00 0.00 21 1004.6
20190624225510 84 288 1.0 3.0 0.00 0.00 0.00 21 1004.6
20190624225010 84 288 1.0 4.0 0.00 0.00 0.00 20 1004.6
20190624224509 84 232 4.0 6.0 0.00 0.00 0.00 19 1004.6
20190624224008 85 308 1.0 2.0 0.00 0.00 0.00 21 1004.6
20190624223507 84 301 0.0 0.0 0.00 0.00 0.00 20 1004.7
20190624223007 84 301 0.0 1.0 0.00 0.00 0.00 20 1004.6
20190624222506 83 318 3.0 7.0 0.00 0.00 0.00 22 1004.7
20190624222005 83 350 3.0 7.0 0.00 0.00 0.00 22 1004.8
20190624221510 83 348 2.0 4.0 0.00 0.00 0.00 21 1004.9
20190624221009 82 316 3.0 8.0 0.00 0.00 0.00 22 1004.9
20190624220509 81 288 1.0 2.0 0.00 0.00 0.00 22 1005.0
20190624220007 82 259 6.0 10.0 0.00 0.00 0.00 22 1005.1
20190624215507 82 300 2.0 4.0 0.00 0.00 0.00 22 1005.1
20190624215006 82 276 1.0 3.0 0.00 0.00 0.00 22 1005.1
20190624214505 82 334 3.0 5.0 0.00 0.00 0.00 21 1005.1
20190624214010 83 355 1.0 3.0 0.00 0.00 0.00 21 1005.1
20190624213509 82 355 0.0 0.0 0.00 0.00 0.00 23 1005.2
20190624213009 82 349 0.0 0.0 0.00 0.00 0.00 21 1005.3
20190624212508 83 340 3.0 7.0 0.00 0.00 0.00 22 1005.4
20190624212007 82 348 1.0 3.0 0.00 0.00 0.00 21 1005.5
20190624211506 82 16 5.0 6.0 0.00 0.00 0.00 22 1005.5
20190624211005 82 269 1.0 3.0 0.00 0.00 0.00 23 1005.6
20190624210510 81 9 1.0 2.0 0.00 0.00 0.00 24 1005.6
20190624210009 81 66 3.0 5.0 0.00 0.00 0.00 22 1005.8
20190624205508 81 349 3.0 6.0 0.00 0.00 0.00 23 1005.9
20190624205007 80 132 0.0 1.0 0.00 0.00 0.00 22 1005.9
20190624204506 80 136 4.0 5.0 0.00 0.00 0.00 21 1006.0
20190624204006 81 27 1.0 2.0 0.00 0.00 0.00 22 1006.1
20190624203505 81 26 3.0 7.0 0.00 0.00 0.00 22 1006.2
20190624203009 80 360 4.0 8.0 0.00 0.00 0.00 25 1006.2
20190624202508 79 189 3.0 5.0 0.00 0.00 0.00 23 1006.2
20190624202006 80 254 5.0 7.0 0.00 0.00 0.00 23 1006.5
20190624201506 82 360 2.0 4.0 0.00 0.00 0.00 23 1006.5
20190624201005 81 360 0.0 1.0 0.00 0.00 0.00 23 1006.6
20190624200510 82 355 6.0 9.0 0.00 0.00 0.00 22 1006.7
20190624200009 82 348 2.0 6.0 0.00 0.00 0.00 24 1006.7
20190624195508 81 355 1.0 4.0 0.00 0.00 0.00 23 1006.8
20190624195008 81 328 2.0 8.0 0.00 0.00 0.00 23 1006.9
20190624194507 80 22 1.0 5.0 0.00 0.00 0.00 22 1007.0
20190624194006 80 19 3.0 6.0 0.00 0.00 0.00 24 1007.0
20190624193506 80 14 3.0 6.0 0.00 0.00 0.00 25 1007.1
20190624193005 80 34 1.0 4.0 0.00 0.00 0.00 24 1007.3
20190624192510 80 344 1.0 4.0 0.00 0.00 0.00 24 1007.3
20190624192009 79 296 0.0 0.0 0.00 0.00 0.00 24 1007.4
20190624191508 79 306 4.0 8.0 0.00 0.00 0.00 25 1007.4
20190624191007 78 348 2.0 4.0 0.00 0.00 0.00 26 1007.4
20190624190506 77 318 5.0 9.0 0.00 0.00 0.00 26 1007.6
20190624190011 77 291 5.0 8.0 0.00 0.00 0.00 26 1007.7
20190624185509 77 327 0.0 2.0 0.00 0.00 0.00 26 1007.8
20190624185008 77 264 6.0 7.0 0.00 0.00 0.00 25 1007.8
20190624184507 77 273 5.0 7.0 0.00 0.00 0.00 25 1007.8
20190624184006 77 323 0.0 0.0 0.00 0.00 0.00 25 1007.8
20190624183506 77 298 2.0 7.0 0.00 0.00 0.00 27 1008.0
20190624183005 76 334 2.0 6.0 0.00 0.00 0.00 26 1008.0
20190624182510 76 308 7.0 11.0 0.00 0.00 0.00 26 1008.1
20190624182009 76 261 8.0 11.0 0.00 0.00 0.00 26 1008.2
20190624181509 76 319 6.0 11.0 0.00 0.00 0.00 26 1008.2
20190624181007 76 334 4.0 8.0 0.00 0.00 0.00 27 1008.3
20190624180507 75 298 8.0 13.0 0.00 0.00 0.00 27 1008.4
20190624180006 75 315 5.0 10.0 0.00 0.00 0.00 27 1008.4
20190624175505 75 274 5.0 11.0 0.00 0.00 0.00 28 1008.5
20190624175010 75 267 8.0 13.0 0.00 0.00 0.00 27 1008.4
20190624174510 74 281 6.0 9.0 0.00 0.00 0.00 27 1008.4
20190624174009 75 256 12.0 20.0 0.00 0.00 0.00 25 1008.5
20190624173507 75 322 6.0 11.0 0.00 0.00 0.00 27 1008.5
20190624173007 75 287 5.0 11.0 0.00 0.00 0.00 27 1008.5
20190624172506 74 331 7.0 12.0 0.00 0.00 0.00 27 1008.5
20190624172005 74 277 5.0 7.0 0.00 0.00 0.00 29 1008.6
20190624171505 74 271 6.0 9.0 0.00 0.00 0.00 28 1008.6
20190624171010 74 270 6.0 11.0 0.00 0.00 0.00 28 1008.6
20190624170509 74 286 3.0 7.0 0.00 0.00 0.00 29 1008.7
20190624170008 73 215 4.0 7.0 0.00 0.00 0.00 30 1008.6
20190624165507 73 282 4.0 6.0 0.00 0.00 0.00 29 1008.7
20190624165006 73 287 6.0 9.0 0.00 0.00 0.00 29 1008.7
20190624164505 72 271 6.0 7.0 0.00 0.00 0.00 29 1008.8
20190624164010 72 322 5.0 8.0 0.00 0.00 0.00 29 1008.9
20190624163510 72 269 4.0 6.0 0.00 0.00 0.00 30 1009.0
20190624163009 72 264 4.0 5.0 0.00 0.00 0.00 30 1009.0
20190624161506 71 193 4.0 9.0 0.00 0.00 0.00 31 1009.2
20190624161005 71 226 4.0 9.0 0.00 0.00 0.00 32 1009.3
20190624160511 71 235 4.0 8.0 0.00 0.00 0.00 31 1009.5
20190624160010 70 244 3.0 5.0 0.00 0.00 0.00 32 1009.5
20190624155508 70 254 4.0 6.0 0.00 0.00 0.00 31 1009.5
20190624155007 70 180 5.0 8.0 0.00 0.00 0.00 32 1009.6